Hedgesville, WV (25427)

12:12 PM EDT on August 30, 2014 (GMT -0400)
Butts Mill and 9 | Change Station
CLOSE
Current Station
Personal Weather Station
Location: Hedgesville, WV
Elevation: 512 ft
Nearby Weather Stations

Elev 512 ft 39.56 °N, 78.04 °W | Updated 9 minutes ago

Overcast
Overcast
78.8 °F
Feels Like 81 °F
N
8.9
Wind Variable Wind from South

Today
High -- | Low -- °F
--% Chance of Precip.
Yesterday
High -- | Low -- °F
Precip. -- in
6:38 AM 7:46 PM
Waxing Crescent, 23% visible
Pressure 30.19 in
Visibility 10.0 miles
Clouds Mostly Cloudy 2200 ft
Heat Index 81 °F
Dew Point 68 °F
Humidity 69%
Rainfall 0.00 in
Snow Depth Not available.
UV 5 out of 12
Pollen 9.30 out of 12
Air Quality Not available.
Flu Activity Not available.
METAR KMRB 301553Z 13008KT 110V170 10SM BKN022 26/18 A3020 RMK AO2 SLP222 T02560178

More Conditions Fewer Conditions

Pressure 30.19 in
Visibility 10.0 miles
Clouds Mostly Cloudy 2200 ft
Heat Index 81 °F
Dew Point 68 °F
Humidity 69%
Rainfall 0.00 in
Snow Depth Not available.
UV 5 out of 12
Pollen 9.30 out of 12
Air Quality Not available.
Flu Activity Not available.
METAR KMRB 301553Z 13008KT 110V170 10SM BKN022 26/18 A3020 RMK AO2 SLP222 T02560178

More Conditions Fewer Conditions

10-Day Weather Forecast

Almanac

Astronomy

Aug. 30, 2014 Rise Set
Actual Time 6:38 AM EDT 7:46 PM EDT
Civil Twilight 6:10 AM EDT 8:14 PM EDT
Nautical Twilight 5:37 AM EDT 8:46 PM EDT
Astronomical Twilight 5:03 AM EDT 9:21 PM EDT
Moon 11:23 AM EDT 10:20 PM EDT
Length of Visible Light 14h 03m
Length of Day
13h 07m
Tomorrow will be 2m 27s shorter.
Waxing Crescent, 23% of the Moon is Illuminated
Today
Waxing Crescent
Sep 2
First Quarter
Sep 8
Full
Sep 15
Last Quarter
Sep 24
New

Today's Extremes

State Highs State Lows

Community

WunderPhotos

Upload Photos

1,748,556 photos uploaded!

WunderBlogs® & News

Nearby

Snow Depth

Station Depth Elevation
No new snow has been reported.

Earthquake Activity

City Distance Mag. Time & Date
No recent earthquake activity has been reported nearby.
Minimum magnitude displayed is 2.5.

Coastal Water Temperatures

Place Temperature
No Stations Reporting

Nearby Weather Stations